sensor_id;sensor_type;location;lat;lon;timestamp;P1;durP1;ratioP1;P2;durP2;ratioP2
50769;SDS011;36740;48.698;11.472;2023-11-21T00:02:10;5.78;;;2.05;;
50769;SDS011;36740;48.698;11.472;2023-11-21T00:04:56;5.25;;;3.15;;
50769;SDS011;36740;48.698;11.472;2023-11-21T00:07:42;9.40;;;3.50;;
50769;SDS011;36740;48.698;11.472;2023-11-21T00:10:28;4.70;;;3.35;;
50769;SDS011;36740;48.698;11.472;2023-11-21T00:13:14;3.78;;;2.67;;
50769;SDS011;36740;48.698;11.472;2023-11-21T00:16:00;5.47;;;2.47;;
50769;SDS011;36740;48.698;11.472;2023-11-21T00:18:45;5.10;;;2.72;;
50769;SDS011;36740;48.698;11.472;2023-11-21T00:21:32;5.20;;;2.92;;
50769;SDS011;36740;48.698;11.472;2023-11-21T00:24:17;8.32;;;3.60;;
50769;SDS011;36740;48.698;11.472;2023-11-21T00:27:03;8.45;;;2.67;;
50769;SDS011;36740;48.698;11.472;2023-11-21T00:29:49;9.07;;;3.95;;
50769;SDS011;36740;48.698;11.472;2023-11-21T00:32:35;11.60;;;2.85;;
50769;SDS011;36740;48.698;11.472;2023-11-21T00:35:21;4.22;;;2.95;;
50769;SDS011;36740;48.698;11.472;2023-11-21T00:38:07;12.02;;;3.08;;
50769;SDS011;36740;48.698;11.472;2023-11-21T00:40:54;4.47;;;2.65;;
50769;SDS011;36740;48.698;11.472;2023-11-21T00:43:41;3.78;;;2.67;;
50769;SDS011;36740;48.698;11.472;2023-11-21T00:46:28;6.40;;;2.47;;
50769;SDS011;36740;48.698;11.472;2023-11-21T00:49:14;6.75;;;3.35;;
50769;SDS011;36740;48.698;11.472;2023-11-21T00:52:00;17.50;;;3.92;;
50769;SDS011;36740;48.698;11.472;2023-11-21T00:54:46;6.13;;;2.13;;
50769;SDS011;36740;48.698;11.472;2023-11-21T00:57:33;7.72;;;4.55;;
50769;SDS011;36740;48.698;11.472;2023-11-21T01:00:20;6.65;;;3.38;;
50769;SDS011;36740;48.698;11.472;2023-11-21T01:03:06;9.10;;;4.05;;
50769;SDS011;36740;48.698;11.472;2023-11-21T01:05:53;7.93;;;3.50;;
50769;SDS011;36740;48.698;11.472;2023-11-21T01:08:39;9.48;;;3.80;;
50769;SDS011;36740;48.698;11.472;2023-11-21T01:11:24;5.90;;;2.90;;
50769;SDS011;36740;48.698;11.472;2023-11-21T01:14:11;9.60;;;3.55;;
50769;SDS011;36740;48.698;11.472;2023-11-21T01:16:58;6.07;;;3.05;;
50769;SDS011;36740;48.698;11.472;2023-11-21T01:19:44;5.63;;;2.40;;
50769;SDS011;36740;48.698;11.472;2023-11-21T01:22:30;12.45;;;4.32;;
50769;SDS011;36740;48.698;11.472;2023-11-21T01:25:15;10.95;;;2.55;;
50769;SDS011;36740;48.698;11.472;2023-11-21T01:28:01;6.00;;;2.53;;
50769;SDS011;36740;48.698;11.472;2023-11-21T01:30:47;9.18;;;3.35;;
50769;SDS011;36740;48.698;11.472;2023-11-21T01:33:34;13.73;;;2.72;;
50769;SDS011;36740;48.698;11.472;2023-11-21T01:36:19;5.28;;;3.13;;
50769;SDS011;36740;48.698;11.472;2023-11-21T01:39:05;3.95;;;2.67;;
50769;SDS011;36740;48.698;11.472;2023-11-21T01:41:53;7.05;;;2.47;;
50769;SDS011;36740;48.698;11.472;2023-11-21T01:44:39;9.07;;;4.00;;
50769;SDS011;36740;48.698;11.472;2023-11-21T01:47:25;5.57;;;3.00;;
50769;SDS011;36740;48.698;11.472;2023-11-21T01:50:14;4.13;;;2.53;;
50769;SDS011;36740;48.698;11.472;2023-11-21T01:55:48;9.13;;;3.13;;
50769;SDS011;36740;48.698;11.472;2023-11-21T01:58:34;4.60;;;2.40;;
50769;SDS011;36740;48.698;11.472;2023-11-21T02:01:20;4.88;;;2.33;;
50769;SDS011;36740;48.698;11.472;2023-11-21T02:04:06;7.40;;;2.88;;
50769;SDS011;36740;48.698;11.472;2023-11-21T02:06:53;8.45;;;3.67;;
50769;SDS011;36740;48.698;11.472;2023-11-21T02:09:40;5.50;;;2.67;;
50769;SDS011;36740;48.698;11.472;2023-11-21T02:12:27;7.07;;;3.72;;
50769;SDS011;36740;48.698;11.472;2023-11-21T02:15:13;6.70;;;3.83;;
50769;SDS011;36740;48.698;11.472;2023-11-21T02:18:05;4.43;;;2.65;;
50769;SDS011;36740;48.698;11.472;2023-11-21T02:20:51;7.15;;;3.35;;
50769;SDS011;36740;48.698;11.472;2023-11-21T02:23:37;4.90;;;3.28;;
50769;SDS011;36740;48.698;11.472;2023-11-21T02:26:23;6.55;;;2.63;;
50769;SDS011;36740;48.698;11.472;2023-11-21T02:29:11;6.30;;;3.45;;
50769;SDS011;36740;48.698;11.472;2023-11-21T02:31:58;6.18;;;2.83;;
50769;SDS011;36740;48.698;11.472;2023-11-21T02:34:45;5.65;;;3.80;;
50769;SDS011;36740;48.698;11.472;2023-11-21T02:37:31;5.60;;;2.72;;
50769;SDS011;36740;48.698;11.472;2023-11-21T02:40:16;10.70;;;3.42;;
50769;SDS011;36740;48.698;11.472;2023-11-21T02:43:06;5.90;;;2.65;;
50769;SDS011;36740;48.698;11.472;2023-11-21T02:45:51;8.50;;;3.17;;
50769;SDS011;36740;48.698;11.472;2023-11-21T02:48:37;7.60;;;3.40;;
50769;SDS011;36740;48.698;11.472;2023-11-21T02:51:23;6.85;;;2.45;;
50769;SDS011;36740;48.698;11.472;2023-11-21T02:54:09;9.82;;;3.58;;
50769;SDS011;36740;48.698;11.472;2023-11-21T02:56:54;7.22;;;3.33;;
50769;SDS011;36740;48.698;11.472;2023-11-21T02:59:40;6.57;;;3.17;;
50769;SDS011;36740;48.698;11.472;2023-11-21T03:02:26;6.20;;;3.65;;
50769;SDS011;36740;48.698;11.472;2023-11-21T03:05:12;4.82;;;2.97;;
50769;SDS011;36740;48.698;11.472;2023-11-21T03:07:57;4.85;;;2.85;;
50769;SDS011;36740;48.698;11.472;2023-11-21T03:10:43;6.45;;;3.05;;
50769;SDS011;36740;48.698;11.472;2023-11-21T03:13:29;6.05;;;3.10;;
50769;SDS011;36740;48.698;11.472;2023-11-21T03:16:15;5.82;;;3.67;;
50769;SDS011;36740;48.698;11.472;2023-11-21T03:19:02;10.32;;;3.30;;
50769;SDS011;36740;48.698;11.472;2023-11-21T03:21:48;4.05;;;2.70;;
50769;SDS011;36740;48.698;11.472;2023-11-21T03:24:34;7.70;;;3.72;;
50769;SDS011;36740;48.698;11.472;2023-11-21T03:27:20;11.05;;;3.50;;
50769;SDS011;36740;48.698;11.472;2023-11-21T03:30:07;4.65;;;2.97;;
50769;SDS011;36740;48.698;11.472;2023-11-21T03:32:54;3.88;;;2.95;;
50769;SDS011;36740;48.698;11.472;2023-11-21T03:35:40;6.65;;;3.70;;
50769;SDS011;36740;48.698;11.472;2023-11-21T03:38:27;7.60;;;3.35;;
50769;SDS011;36740;48.698;11.472;2023-11-21T03:41:13;7.03;;;2.38;;
50769;SDS011;36740;48.698;11.472;2023-11-21T03:43:59;7.70;;;4.07;;
50769;SDS011;36740;48.698;11.472;2023-11-21T03:46:45;7.45;;;3.35;;
50769;SDS011;36740;48.698;11.472;2023-11-21T03:49:31;3.45;;;2.42;;
50769;SDS011;36740;48.698;11.472;2023-11-21T03:52:17;5.38;;;2.75;;
50769;SDS011;36740;48.698;11.472;2023-11-21T03:55:04;6.20;;;3.20;;
50769;SDS011;36740;48.698;11.472;2023-11-21T03:57:50;8.98;;;2.33;;
50769;SDS011;36740;48.698;11.472;2023-11-21T04:00:36;6.72;;;3.03;;
50769;SDS011;36740;48.698;11.472;2023-11-21T04:03:22;6.15;;;2.83;;
50769;SDS011;36740;48.698;11.472;2023-11-21T04:06:08;5.18;;;3.78;;
50769;SDS011;36740;48.698;11.472;2023-11-21T04:08:54;3.75;;;2.90;;
50769;SDS011;36740;48.698;11.472;2023-11-21T04:11:40;7.68;;;3.30;;
50769;SDS011;36740;48.698;11.472;2023-11-21T04:14:25;6.40;;;2.60;;
50769;SDS011;36740;48.698;11.472;2023-11-21T04:17:11;4.35;;;3.08;;
50769;SDS011;36740;48.698;11.472;2023-11-21T04:19:57;4.57;;;2.83;;
50769;SDS011;36740;48.698;11.472;2023-11-21T04:22:43;7.70;;;4.03;;
50769;SDS011;36740;48.698;11.472;2023-11-21T04:25:30;3.60;;;2.42;;
50769;SDS011;36740;48.698;11.472;2023-11-21T04:28:16;4.88;;;2.55;;
50769;SDS011;36740;48.698;11.472;2023-11-21T04:31:01;9.27;;;3.00;;
50769;SDS011;36740;48.698;11.472;2023-11-21T04:33:47;3.53;;;2.60;;
50769;SDS011;36740;48.698;11.472;2023-11-21T04:36:33;7.57;;;2.70;;
50769;SDS011;36740;48.698;11.472;2023-11-21T04:39:20;7.95;;;4.15;;
50769;SDS011;36740;48.698;11.472;2023-11-21T04:42:06;3.97;;;2.70;;
50769;SDS011;36740;48.698;11.472;2023-11-21T04:44:51;9.80;;;3.92;;
50769;SDS011;36740;48.698;11.472;2023-11-21T04:47:38;7.07;;;2.80;;
50769;SDS011;36740;48.698;11.472;2023-11-21T04:50:23;8.23;;;2.50;;
50769;SDS011;36740;48.698;11.472;2023-11-21T04:53:12;7.20;;;3.88;;
50769;SDS011;36740;48.698;11.472;2023-11-21T04:55:59;4.68;;;3.92;;
50769;SDS011;36740;48.698;11.472;2023-11-21T04:58:45;6.63;;;2.88;;
50769;SDS011;36740;48.698;11.472;2023-11-21T05:01:31;5.57;;;3.55;;
50769;SDS011;36740;48.698;11.472;2023-11-21T05:04:17;7.22;;;3.88;;
50769;SDS011;36740;48.698;11.472;2023-11-21T05:07:03;12.07;;;3.70;;
50769;SDS011;36740;48.698;11.472;2023-11-21T05:09:48;7.03;;;2.33;;
50769;SDS011;36740;48.698;11.472;2023-11-21T05:12:35;6.57;;;3.83;;
50769;SDS011;36740;48.698;11.472;2023-11-21T05:15:24;2.55;;;1.92;;
50769;SDS011;36740;48.698;11.472;2023-11-21T05:18:10;7.43;;;3.28;;
50769;SDS011;36740;48.698;11.472;2023-11-21T05:20:56;5.68;;;2.67;;
50769;SDS011;36740;48.698;11.472;2023-11-21T05:23:42;10.82;;;3.50;;
50769;SDS011;36740;48.698;11.472;2023-11-21T05:26:28;8.75;;;3.20;;
50769;SDS011;36740;48.698;11.472;2023-11-21T05:29:14;5.18;;;2.28;;
50769;SDS011;36740;48.698;11.472;2023-11-21T05:32:00;8.18;;;2.92;;
50769;SDS011;36740;48.698;11.472;2023-11-21T05:34:47;6.68;;;3.53;;
50769;SDS011;36740;48.698;11.472;2023-11-21T05:37:32;8.45;;;3.67;;
50769;SDS011;36740;48.698;11.472;2023-11-21T05:40:18;7.18;;;4.05;;
50769;SDS011;36740;48.698;11.472;2023-11-21T05:43:04;7.22;;;4.45;;
50769;SDS011;36740;48.698;11.472;2023-11-21T05:45:50;4.13;;;2.90;;
50769;SDS011;36740;48.698;11.472;2023-11-21T05:48:37;13.38;;;4.05;;
50769;SDS011;36740;48.698;11.472;2023-11-21T05:51:22;8.98;;;3.95;;
50769;SDS011;36740;48.698;11.472;2023-11-21T05:54:08;3.35;;;2.65;;
50769;SDS011;36740;48.698;11.472;2023-11-21T05:56:54;3.65;;;2.45;;
50769;SDS011;36740;48.698;11.472;2023-11-21T05:59:40;3.53;;;2.58;;
50769;SDS011;36740;48.698;11.472;2023-11-21T06:02:26;6.88;;;3.00;;
50769;SDS011;36740;48.698;11.472;2023-11-21T06:05:12;7.53;;;3.20;;
50769;SDS011;36740;48.698;11.472;2023-11-21T06:07:58;6.30;;;4.20;;
50769;SDS011;36740;48.698;11.472;2023-11-21T06:10:44;6.43;;;1.88;;
50769;SDS011;36740;48.698;11.472;2023-11-21T06:13:30;2.25;;;1.83;;
50769;SDS011;36740;48.698;11.472;2023-11-21T06:16:17;6.78;;;2.55;;
50769;SDS011;36740;48.698;11.472;2023-11-21T06:19:04;3.05;;;2.47;;
50769;SDS011;36740;48.698;11.472;2023-11-21T06:21:50;6.50;;;3.15;;
50769;SDS011;36740;48.698;11.472;2023-11-21T06:24:36;4.95;;;2.53;;
50769;SDS011;36740;48.698;11.472;2023-11-21T06:27:22;7.32;;;2.58;;
50769;SDS011;36740;48.698;11.472;2023-11-21T06:30:10;5.63;;;2.60;;
50769;SDS011;36740;48.698;11.472;2023-11-21T06:32:57;7.45;;;3.17;;
50769;SDS011;36740;48.698;11.472;2023-11-21T06:35:42;7.32;;;3.92;;
50769;SDS011;36740;48.698;11.472;2023-11-21T06:38:28;13.07;;;3.22;;
50769;SDS011;36740;48.698;11.472;2023-11-21T06:41:17;12.23;;;4.78;;
50769;SDS011;36740;48.698;11.472;2023-11-21T06:44:03;11.85;;;4.85;;
50769;SDS011;36740;48.698;11.472;2023-11-21T06:46:49;11.25;;;5.80;;
50769;SDS011;36740;48.698;11.472;2023-11-21T06:49:36;12.13;;;6.05;;
50769;SDS011;36740;48.698;11.472;2023-11-21T06:52:23;11.32;;;4.53;;
50769;SDS011;36740;48.698;11.472;2023-11-21T06:55:09;4.57;;;2.92;;
50769;SDS011;36740;48.698;11.472;2023-11-21T06:57:55;6.78;;;3.47;;
50769;SDS011;36740;48.698;11.472;2023-11-21T07:00:41;11.73;;;6.47;;
50769;SDS011;36740;48.698;11.472;2023-11-21T07:03:32;7.25;;;3.38;;
50769;SDS011;36740;48.698;11.472;2023-11-21T07:06:18;11.45;;;5.35;;
50769;SDS011;36740;48.698;11.472;2023-11-21T07:09:03;7.90;;;3.05;;
50769;SDS011;36740;48.698;11.472;2023-11-21T07:11:49;5.72;;;3.50;;
50769;SDS011;36740;48.698;11.472;2023-11-21T07:14:35;8.15;;;3.47;;
50769;SDS011;36740;48.698;11.472;2023-11-21T07:17:21;10.38;;;3.70;;
50769;SDS011;36740;48.698;11.472;2023-11-21T07:20:08;8.80;;;4.05;;
50769;SDS011;36740;48.698;11.472;2023-11-21T07:22:54;12.70;;;5.00;;
50769;SDS011;36740;48.698;11.472;2023-11-21T07:25:41;11.35;;;3.75;;
50769;SDS011;36740;48.698;11.472;2023-11-21T07:28:29;10.45;;;3.78;;
50769;SDS011;36740;48.698;11.472;2023-11-21T07:31:15;6.40;;;3.75;;
50769;SDS011;36740;48.698;11.472;2023-11-21T07:34:01;7.03;;;3.53;;
50769;SDS011;36740;48.698;11.472;2023-11-21T07:36:47;14.85;;;3.05;;
50769;SDS011;36740;48.698;11.472;2023-11-21T07:39:33;7.40;;;2.33;;
50769;SDS011;36740;48.698;11.472;2023-11-21T07:42:18;8.30;;;2.70;;
50769;SDS011;36740;48.698;11.472;2023-11-21T07:45:05;3.75;;;1.90;;
50769;SDS011;36740;48.698;11.472;2023-11-21T07:47:52;10.85;;;2.75;;
50769;SDS011;36740;48.698;11.472;2023-11-21T07:50:38;4.75;;;2.60;;
50769;SDS011;36740;48.698;11.472;2023-11-21T07:53:27;9.05;;;3.40;;
50769;SDS011;36740;48.698;11.472;2023-11-21T07:56:15;6.50;;;2.75;;
50769;SDS011;36740;48.698;11.472;2023-11-21T07:59:01;3.97;;;2.83;;
50769;SDS011;36740;48.698;11.472;2023-11-21T08:01:46;5.30;;;2.40;;
50769;SDS011;36740;48.698;11.472;2023-11-21T08:04:32;5.30;;;2.55;;
50769;SDS011;36740;48.698;11.472;2023-11-21T08:07:19;2.45;;;2.25;;
50769;SDS011;36740;48.698;11.472;2023-11-21T08:10:05;4.72;;;1.92;;
50769;SDS011;36740;48.698;11.472;2023-11-21T08:12:52;6.03;;;3.80;;
50769;SDS011;36740;48.698;11.472;2023-11-21T08:15:38;3.00;;;1.75;;
50769;SDS011;36740;48.698;11.472;2023-11-21T08:18:24;4.03;;;2.33;;
50769;SDS011;36740;48.698;11.472;2023-11-21T08:21:12;4.60;;;2.40;;
50769;SDS011;36740;48.698;11.472;2023-11-21T08:23:58;5.57;;;2.55;;
50769;SDS011;36740;48.698;11.472;2023-11-21T08:26:45;4.07;;;2.35;;
50769;SDS011;36740;48.698;11.472;2023-11-21T08:29:30;3.95;;;2.47;;
50769;SDS011;36740;48.698;11.472;2023-11-21T08:32:16;3.03;;;2.03;;
50769;SDS011;36740;48.698;11.472;2023-11-21T08:35:02;1.65;;;1.40;;
50769;SDS011;36740;48.698;11.472;2023-11-21T08:37:50;6.50;;;3.20;;
50769;SDS011;36740;48.698;11.472;2023-11-21T08:40:36;5.97;;;3.00;;
50769;SDS011;36740;48.698;11.472;2023-11-21T08:43:22;7.35;;;2.15;;
50769;SDS011;36740;48.698;11.472;2023-11-21T08:46:08;3.35;;;1.83;;
50769;SDS011;36740;48.698;11.472;2023-11-21T08:48:53;2.35;;;1.85;;
50769;SDS011;36740;48.698;11.472;2023-11-21T08:51:39;6.82;;;2.40;;
50769;SDS011;36740;48.698;11.472;2023-11-21T08:54:25;6.68;;;2.22;;
50769;SDS011;36740;48.698;11.472;2023-11-21T08:57:11;3.45;;;1.52;;
50769;SDS011;36740;48.698;11.472;2023-11-21T08:59:57;3.50;;;2.17;;
50769;SDS011;36740;48.698;11.472;2023-11-21T09:02:43;7.00;;;2.88;;
50769;SDS011;36740;48.698;11.472;2023-11-21T09:05:29;4.00;;;2.60;;
50769;SDS011;36740;48.698;11.472;2023-11-21T09:08:15;4.53;;;2.28;;
50769;SDS011;36740;48.698;11.472;2023-11-21T09:11:01;5.57;;;2.33;;
50769;SDS011;36740;48.698;11.472;2023-11-21T09:13:48;4.63;;;2.15;;
50769;SDS011;36740;48.698;11.472;2023-11-21T09:16:33;3.80;;;1.80;;
50769;SDS011;36740;48.698;11.472;2023-11-21T09:19:19;5.72;;;1.88;;
50769;SDS011;36740;48.698;11.472;2023-11-21T09:22:05;2.58;;;1.60;;
50769;SDS011;36740;48.698;11.472;2023-11-21T09:24:51;4.57;;;1.98;;
50769;SDS011;36740;48.698;11.472;2023-11-21T09:27:37;3.40;;;1.75;;
50769;SDS011;36740;48.698;11.472;2023-11-21T09:30:23;2.83;;;2.25;;
50769;SDS011;36740;48.698;11.472;2023-11-21T09:33:09;11.13;;;4.72;;
50769;SDS011;36740;48.698;11.472;2023-11-21T09:35:58;7.05;;;3.38;;
50769;SDS011;36740;48.698;11.472;2023-11-21T09:38:44;7.85;;;3.63;;
50769;SDS011;36740;48.698;11.472;2023-11-21T09:41:33;4.45;;;2.20;;
50769;SDS011;36740;48.698;11.472;2023-11-21T09:44:32;3.28;;;2.28;;
50769;SDS011;36740;48.698;11.472;2023-11-21T09:47:22;6.70;;;3.40;;
50769;SDS011;36740;48.698;11.472;2023-11-21T09:50:08;3.22;;;2.45;;
50769;SDS011;36740;48.698;11.472;2023-11-21T09:55:58;5.50;;;3.47;;
50769;SDS011;36740;48.698;11.472;2023-11-21T09:58:49;4.20;;;2.92;;
50769;SDS011;36740;48.698;11.472;2023-11-21T10:01:36;6.60;;;2.58;;
50769;SDS011;36740;48.698;11.472;2023-11-21T10:04:25;5.95;;;2.88;;
50769;SDS011;36740;48.698;11.472;2023-11-21T10:07:13;3.03;;;2.63;;
50769;SDS011;36740;48.698;11.472;2023-11-21T10:10:02;4.55;;;2.30;;
50769;SDS011;36740;48.698;11.472;2023-11-21T10:12:50;2.97;;;2.17;;
50769;SDS011;36740;48.698;11.472;2023-11-21T10:15:40;6.38;;;3.28;;
50769;SDS011;36740;48.698;11.472;2023-11-21T10:18:29;4.32;;;2.88;;
50769;SDS011;36740;48.698;11.472;2023-11-21T10:21:15;3.70;;;2.50;;
50769;SDS011;36740;48.698;11.472;2023-11-21T10:24:02;6.80;;;3.03;;
50769;SDS011;36740;48.698;11.472;2023-11-21T10:26:48;6.70;;;3.58;;
50769;SDS011;36740;48.698;11.472;2023-11-21T10:29:34;8.13;;;3.00;;
50769;SDS011;36740;48.698;11.472;2023-11-21T10:32:21;5.97;;;2.97;;
50769;SDS011;36740;48.698;11.472;2023-11-21T10:35:07;8.40;;;3.92;;
50769;SDS011;36740;48.698;11.472;2023-11-21T10:38:01;6.80;;;3.97;;
50769;SDS011;36740;48.698;11.472;2023-11-21T10:40:48;5.03;;;3.13;;
50769;SDS011;36740;48.698;11.472;2023-11-21T10:43:34;3.97;;;3.00;;
50769;SDS011;36740;48.698;11.472;2023-11-21T10:46:20;6.63;;;3.17;;
50769;SDS011;36740;48.698;11.472;2023-11-21T10:49:06;5.78;;;3.80;;
50769;SDS011;36740;48.698;11.472;2023-11-21T10:51:55;6.07;;;4.03;;
50769;SDS011;36740;48.698;11.472;2023-11-21T10:54:41;8.18;;;3.63;;
50769;SDS011;36740;48.698;11.472;2023-11-21T10:57:28;6.97;;;3.65;;
50769;SDS011;36740;48.698;11.472;2023-11-21T11:00:14;12.45;;;3.95;;
50769;SDS011;36740;48.698;11.472;2023-11-21T11:03:01;16.05;;;4.03;;
50769;SDS011;36740;48.698;11.472;2023-11-21T11:05:48;10.63;;;4.78;;
50769;SDS011;36740;48.698;11.472;2023-11-21T11:08:37;5.80;;;3.38;;
50769;SDS011;36740;48.698;11.472;2023-11-21T11:11:24;10.00;;;3.97;;
50769;SDS011;36740;48.698;11.472;2023-11-21T11:14:11;8.73;;;4.82;;
50769;SDS011;36740;48.698;11.472;2023-11-21T11:16:58;21.60;;;10.95;;
50769;SDS011;36740;48.698;11.472;2023-11-21T11:19:46;12.18;;;6.28;;
50769;SDS011;36740;48.698;11.472;2023-11-21T11:22:37;19.38;;;7.57;;
50769;SDS011;36740;48.698;11.472;2023-11-21T11:25:49;10.63;;;5.22;;
50769;SDS011;36740;48.698;11.472;2023-11-21T11:28:48;9.70;;;3.22;;
50769;SDS011;36740;48.698;11.472;2023-11-21T11:35:01;13.55;;;4.97;;
50769;SDS011;36740;48.698;11.472;2023-11-21T11:37:53;7.75;;;4.25;;
50769;SDS011;36740;48.698;11.472;2023-11-21T11:40:40;9.70;;;4.55;;
50769;SDS011;36740;48.698;11.472;2023-11-21T11:43:27;8.30;;;4.18;;
50769;SDS011;36740;48.698;11.472;2023-11-21T11:46:13;23.85;;;7.50;;
50769;SDS011;36740;48.698;11.472;2023-11-21T11:49:02;12.00;;;5.63;;
50769;SDS011;36740;48.698;11.472;2023-11-21T11:51:56;5.55;;;3.67;;
50769;SDS011;36740;48.698;11.472;2023-11-21T11:55:16;3.97;;;2.63;;
50769;SDS011;36740;48.698;11.472;2023-11-21T11:58:06;4.07;;;2.63;;
50769;SDS011;36740;48.698;11.472;2023-11-21T12:00:52;8.43;;;3.03;;
50769;SDS011;36740;48.698;11.472;2023-11-21T12:03:40;5.70;;;3.15;;
50769;SDS011;36740;48.698;11.472;2023-11-21T12:06:33;5.20;;;3.03;;
50769;SDS011;36740;48.698;11.472;2023-11-21T12:09:20;8.25;;;3.20;;
50769;SDS011;36740;48.698;11.472;2023-11-21T12:12:08;8.77;;;3.88;;
50769;SDS011;36740;48.698;11.472;2023-11-21T12:14:53;7.60;;;2.97;;
50769;SDS011;36740;48.698;11.472;2023-11-21T12:17:41;4.32;;;2.58;;
50769;SDS011;36740;48.698;11.472;2023-11-21T12:20:30;6.40;;;3.42;;
50769;SDS011;36740;48.698;11.472;2023-11-21T12:23:17;4.70;;;3.17;;
50769;SDS011;36740;48.698;11.472;2023-11-21T12:26:03;2.75;;;2.28;;
50769;SDS011;36740;48.698;11.472;2023-11-21T12:28:55;5.63;;;3.10;;
50769;SDS011;36740;48.698;11.472;2023-11-21T12:31:41;4.65;;;3.00;;
50769;SDS011;36740;48.698;11.472;2023-11-21T12:34:27;4.45;;;2.28;;
50769;SDS011;36740;48.698;11.472;2023-11-21T12:37:13;2.25;;;1.60;;
50769;SDS011;36740;48.698;11.472;2023-11-21T12:39:58;3.38;;;2.05;;
50769;SDS011;36740;48.698;11.472;2023-11-21T12:42:45;5.13;;;2.92;;
50769;SDS011;36740;48.698;11.472;2023-11-21T12:45:33;3.53;;;2.03;;
50769;SDS011;36740;48.698;11.472;2023-11-21T12:48:19;5.05;;;2.97;;
50769;SDS011;36740;48.698;11.472;2023-11-21T12:51:12;4.07;;;2.30;;
50769;SDS011;36740;48.698;11.472;2023-11-21T12:54:01;2.55;;;1.75;;
50769;SDS011;36740;48.698;11.472;2023-11-21T12:56:47;5.25;;;2.10;;
50769;SDS011;36740;48.698;11.472;2023-11-21T12:59:32;4.95;;;2.92;;
50769;SDS011;36740;48.698;11.472;2023-11-21T13:02:18;6.68;;;3.28;;
50769;SDS011;36740;48.698;11.472;2023-11-21T13:05:04;5.05;;;2.95;;
50769;SDS011;36740;48.698;11.472;2023-11-21T13:18:32;6.60;;;3.42;;
50769;SDS011;36740;48.698;11.472;2023-11-21T13:21:18;8.02;;;2.55;;
50769;SDS011;36740;48.698;11.472;2023-11-21T13:24:04;4.97;;;3.30;;
50769;SDS011;36740;48.698;11.472;2023-11-21T13:26:50;5.00;;;3.70;;
50769;SDS011;36740;48.698;11.472;2023-11-21T13:29:36;5.00;;;3.58;;
50769;SDS011;36740;48.698;11.472;2023-11-21T13:32:22;5.47;;;2.95;;
50769;SDS011;36740;48.698;11.472;2023-11-21T13:35:07;7.47;;;4.32;;
50769;SDS011;36740;48.698;11.472;2023-11-21T13:38:09;7.20;;;3.85;;
50769;SDS011;36740;48.698;11.472;2023-11-21T13:40:57;4.78;;;3.33;;
50769;SDS011;36740;48.698;11.472;2023-11-21T13:43:44;5.88;;;2.42;;
50769;SDS011;36740;48.698;11.472;2023-11-21T13:46:38;3.50;;;2.60;;
50769;SDS011;36740;48.698;11.472;2023-11-21T13:49:23;4.03;;;2.20;;
50769;SDS011;36740;48.698;11.472;2023-11-21T13:52:10;4.20;;;2.67;;
50769;SDS011;36740;48.698;11.472;2023-11-21T13:55:00;5.13;;;3.00;;
50769;SDS011;36740;48.698;11.472;2023-11-21T13:57:51;7.20;;;3.85;;
50769;SDS011;36740;48.698;11.472;2023-11-21T14:00:38;4.80;;;2.22;;
50769;SDS011;36740;48.698;11.472;2023-11-21T14:03:30;4.30;;;2.83;;
50769;SDS011;36740;48.698;11.472;2023-11-21T14:06:24;4.75;;;2.95;;
50769;SDS011;36740;48.698;11.472;2023-11-21T14:09:18;4.70;;;2.95;;
50769;SDS011;36740;48.698;11.472;2023-11-21T14:12:10;9.88;;;3.00;;
50769;SDS011;36740;48.698;11.472;2023-11-21T14:14:57;5.35;;;2.78;;
50769;SDS011;36740;48.698;11.472;2023-11-21T14:17:43;4.80;;;2.85;;
50769;SDS011;36740;48.698;11.472;2023-11-21T14:20:29;5.13;;;2.72;;
50769;SDS011;36740;48.698;11.472;2023-11-21T14:23:15;4.75;;;2.50;;
50769;SDS011;36740;48.698;11.472;2023-11-21T14:26:01;6.45;;;3.17;;
50769;SDS011;36740;48.698;11.472;2023-11-21T14:28:48;4.38;;;2.90;;
50769;SDS011;36740;48.698;11.472;2023-11-21T14:31:34;5.32;;;3.38;;
50769;SDS011;36740;48.698;11.472;2023-11-21T14:34:20;10.23;;;3.45;;
50769;SDS011;36740;48.698;11.472;2023-11-21T14:37:07;4.20;;;2.95;;
50769;SDS011;36740;48.698;11.472;2023-11-21T14:39:52;4.95;;;2.90;;
50769;SDS011;36740;48.698;11.472;2023-11-21T14:42:38;6.75;;;3.65;;
50769;SDS011;36740;48.698;11.472;2023-11-21T14:45:25;7.60;;;3.53;;
50769;SDS011;36740;48.698;11.472;2023-11-21T14:48:11;4.97;;;2.65;;
50769;SDS011;36740;48.698;11.472;2023-11-21T14:51:17;8.85;;;3.17;;
50769;SDS011;36740;48.698;11.472;2023-11-21T14:54:15;7.88;;;3.65;;
50769;SDS011;36740;48.698;11.472;2023-11-21T14:57:11;6.53;;;3.25;;
50769;SDS011;36740;48.698;11.472;2023-11-21T15:00:00;4.63;;;3.42;;
50769;SDS011;36740;48.698;11.472;2023-11-21T15:02:46;7.03;;;4.88;;
50769;SDS011;36740;48.698;11.472;2023-11-21T15:05:35;4.43;;;3.22;;
50769;SDS011;36740;48.698;11.472;2023-11-21T15:08:21;7.78;;;3.92;;
50769;SDS011;36740;48.698;11.472;2023-11-21T15:11:12;4.55;;;2.85;;
50769;SDS011;36740;48.698;11.472;2023-11-21T15:14:01;5.82;;;3.47;;
50769;SDS011;36740;48.698;11.472;2023-11-21T15:19:42;9.43;;;2.40;;
50769;SDS011;36740;48.698;11.472;2023-11-21T15:22:29;3.53;;;2.25;;
50769;SDS011;36740;48.698;11.472;2023-11-21T15:25:15;2.72;;;2.17;;
50769;SDS011;36740;48.698;11.472;2023-11-21T15:28:01;6.38;;;2.70;;
50769;SDS011;36740;48.698;11.472;2023-11-21T15:30:48;5.53;;;2.95;;
50769;SDS011;36740;48.698;11.472;2023-11-21T15:33:36;6.18;;;3.15;;
50769;SDS011;36740;48.698;11.472;2023-11-21T15:36:22;4.00;;;3.35;;
50769;SDS011;36740;48.698;11.472;2023-11-21T15:39:08;3.92;;;3.03;;
50769;SDS011;36740;48.698;11.472;2023-11-21T15:41:58;2.22;;;1.70;;
50769;SDS011;36740;48.698;11.472;2023-11-21T15:44:45;4.47;;;3.03;;
50769;SDS011;36740;48.698;11.472;2023-11-21T15:47:30;8.32;;;3.78;;
50769;SDS011;36740;48.698;11.472;2023-11-21T15:50:16;5.05;;;3.63;;
50769;SDS011;36740;48.698;11.472;2023-11-21T15:53:02;4.60;;;3.28;;
50769;SDS011;36740;48.698;11.472;2023-11-21T15:55:51;6.50;;;2.80;;
50769;SDS011;36740;48.698;11.472;2023-11-21T15:58:39;1.95;;;1.83;;
50769;SDS011;36740;48.698;11.472;2023-11-21T16:01:27;4.88;;;3.05;;
50769;SDS011;36740;48.698;11.472;2023-11-21T16:04:14;7.68;;;3.92;;
50769;SDS011;36740;48.698;11.472;2023-11-21T16:07:06;24.40;;;6.75;;
50769;SDS011;36740;48.698;11.472;2023-11-21T16:09:52;33.67;;;17.97;;
50769;SDS011;36740;48.698;11.472;2023-11-21T16:12:38;46.70;;;22.52;;
50769;SDS011;36740;48.698;11.472;2023-11-21T16:15:25;64.45;;;28.33;;
50769;SDS011;36740;48.698;11.472;2023-11-21T16:18:11;35.67;;;19.23;;
50769;SDS011;36740;48.698;11.472;2023-11-21T16:20:57;14.85;;;7.32;;
50769;SDS011;36740;48.698;11.472;2023-11-21T16:23:43;8.52;;;5.10;;
50769;SDS011;36740;48.698;11.472;2023-11-21T16:26:28;11.00;;;5.85;;
50769;SDS011;36740;48.698;11.472;2023-11-21T16:29:16;10.50;;;5.28;;
50769;SDS011;36740;48.698;11.472;2023-11-21T16:32:02;12.75;;;8.48;;
50769;SDS011;36740;48.698;11.472;2023-11-21T16:34:48;10.02;;;7.65;;
50769;SDS011;36740;48.698;11.472;2023-11-21T16:37:34;15.32;;;8.55;;
50769;SDS011;36740;48.698;11.472;2023-11-21T16:40:20;10.85;;;5.35;;
50769;SDS011;36740;48.698;11.472;2023-11-21T16:43:09;11.57;;;4.47;;
50769;SDS011;36740;48.698;11.472;2023-11-21T16:45:55;10.95;;;6.55;;
50769;SDS011;36740;48.698;11.472;2023-11-21T16:48:41;8.65;;;5.35;;
50769;SDS011;36740;48.698;11.472;2023-11-21T16:51:27;9.05;;;4.05;;
50769;SDS011;36740;48.698;11.472;2023-11-21T16:54:15;7.72;;;4.38;;